logo
Search for airport 
image banner adimage banner adimage banner ad
image banner ad

EHH059 - Doorn

Located in , Netherlands

ICAO - , IATA -

Data provided by Airmate  

General information

Coordinates: N52°1'8" E5°21'12"
Elevation is 13 feet MSL.
 
View others Airports in Utrecht

Operational data

Special qualification required
Current time UTC:
Current local time:
Weather at : EHDL - Arnhem/Deelen ( 36 km )
METAR: EHDL 141725Z AUTO 24007KT 160V300 9999 OVC220 20/12 Q1012 BLU
View NOTAMs / SUP AIP / TFR affecting this airport [VIEW]
Communications frequencies: [VIEW]

Runways:

Airport contact information

Address: Netherlands

Satellite view of EHH059